Time;durP1;ratioP1;P1;durP2;ratioP2;P2;SDS_P1;SDS_P2;PMS_P1;PMS_P2;Temp;Humidity;BMP_temperature;BMP_pressure;BME280_temperature;BME280_humidity;BME280_pressure;Samples;Min_cycle;Max_cycle;Signal;HPM_P1;HPM_P2
2020/12/17 00:00:18;;;;;;;23.37;17.70;;;;;;;2.38;100.00;98474.59;5012344;28;20639;-73
2020/12/17 00:02:46;;;;;;;24.30;20.10;;;;;;;2.71;100.00;98470.69;5009051;28;20211;-71
2020/12/17 00:05:13;;;;;;;22.83;18.47;;;;;;;2.65;100.00;98482.41;5007982;28;20204;-72
2020/12/17 00:07:42;;;;;;;23.50;18.43;;;;;;;2.59;100.00;98482.81;4974069;28;20238;-72
2020/12/17 00:10:11;;;;;;;24.63;17.53;;;;;;;2.50;100.00;98479.03;4991597;28;20601;-72
2020/12/17 00:12:39;;;;;;;21.57;18.13;;;;;;;2.64;100.00;98485.13;5008070;28;20393;-73
2020/12/17 00:15:08;;;;;;;22.50;17.37;;;;;;;2.66;100.00;98483.25;4986950;28;20219;-73
2020/12/17 00:17:40;;;;;;;21.97;16.47;;;;;;;2.55;100.00;98469.09;5010573;28;20703;-71
2020/12/17 00:20:07;;;;;;;21.20;17.20;;;;;;;2.46;100.00;98470.53;5011752;28;20219;-74
2020/12/17 00:22:35;;;;;;;23.63;17.57;;;;;;;2.41;100.00;98469.16;4969539;28;20216;-73
2020/12/17 00:25:04;;;;;;;20.90;17.77;;;;;;;2.55;100.00;98460.41;4989684;28;20687;-74
2020/12/17 00:27:31;;;;;;;21.40;17.70;;;;;;;2.46;100.00;98467.06;4993885;28;20461;-74
2020/12/17 00:29:58;;;;;;;19.70;17.60;;;;;;;2.40;100.00;98468.34;4984577;28;20235;-73
2020/12/17 00:32:25;;;;;;;23.67;17.50;;;;;;;2.28;100.00;98479.59;5007572;28;20227;-73
2020/12/17 00:34:52;;;;;;;18.83;16.60;;;;;;;2.36;100.00;98471.22;5008175;28;20520;-74
2020/12/17 00:37:19;;;;;;;20.37;17.00;;;;;;;2.35;100.00;98467.78;4970512;28;20224;-73
2020/12/17 00:39:46;;;;;;;22.50;17.10;;;;;;;2.37;100.00;98462.44;5007433;28;20692;-73
2020/12/17 00:42:14;;;;;;;23.73;17.97;;;;;;;2.33;100.00;98463.59;4991025;28;20211;-72
2020/12/17 00:44:41;;;;;;;21.83;16.50;;;;;;;2.27;100.00;98454.34;4980307;28;20204;-74
2020/12/17 00:47:08;;;;;;;20.67;17.03;;;;;;;2.20;100.00;98461.78;5005649;28;20224;-73
2020/12/17 00:49:35;;;;;;;20.30;16.53;;;;;;;2.24;100.00;98463.25;5008236;28;20243;-73
2020/12/17 00:52:02;;;;;;;18.10;15.90;;;;;;;2.23;100.00;98464.19;5006400;28;20744;-73
2020/12/17 00:54:29;;;;;;;18.33;15.37;;;;;;;2.26;100.00;98466.59;4977556;28;20467;-72
2020/12/17 00:56:56;;;;;;;20.87;16.57;;;;;;;2.35;100.00;98469.56;4992763;28;20232;-74
2020/12/17 00:59:24;;;;;;;20.40;16.67;;;;;;;2.29;100.00;98482.09;5004209;28;20714;-72
2020/12/17 01:01:51;;;;;;;20.50;16.97;;;;;;;2.46;100.00;98478.38;4984969;28;20584;-74
2020/12/17 01:04:19;;;;;;;19.53;15.20;;;;;;;2.57;100.00;98484.69;5006941;28;20235;-74
2020/12/17 01:06:46;;;;;;;17.33;15.13;;;;;;;2.52;100.00;98489.38;5009403;28;20691;-74
2020/12/17 01:09:13;;;;;;;19.57;16.00;;;;;;;2.40;100.00;98489.25;4977251;28;20217;-73
2020/12/17 01:11:40;;;;;;;18.93;16.50;;;;;;;2.49;100.00;98498.28;4988712;28;20205;-73
2020/12/17 01:14:07;;;;;;;19.40;15.60;;;;;;;2.45;100.00;98502.88;5003331;28;20205;-71
2020/12/17 01:16:34;;;;;;;15.80;14.10;;;;;;;2.35;100.00;98508.78;4979772;28;22840;-71
2020/12/17 01:19:01;;;;;;;18.17;15.07;;;;;;;2.27;100.00;98507.53;5010380;28;20295;-71
2020/12/17 01:21:28;;;;;;;18.30;14.77;;;;;;;2.32;100.00;98512.47;5006998;28;20289;-73
2020/12/17 01:23:55;;;;;;;17.67;15.63;;;;;;;2.17;100.00;98509.88;4975662;28;20776;-73
2020/12/17 01:26:23;;;;;;;17.63;14.90;;;;;;;2.13;100.00;98497.13;4980564;28;20208;-73
2020/12/17 01:28:50;;;;;;;17.37;14.80;;;;;;;2.16;100.00;98504.75;5007356;28;20211;-73
2020/12/17 01:31:17;;;;;;;18.03;15.43;;;;;;;2.29;100.00;98510.06;4975151;28;20264;-75
2020/12/17 01:33:45;;;;;;;17.07;14.37;;;;;;;2.24;100.00;98510.34;5004850;28;20196;-73
2020/12/17 01:36:12;;;;;;;16.33;14.43;;;;;;;2.25;100.00;98511.16;5006482;28;20234;-73
2020/12/17 01:38:41;;;;;;;15.37;13.43;;;;;;;2.21;100.00;98507.91;5005333;28;20599;-72
2020/12/17 01:41:11;;;;;;;16.33;13.27;;;;;;;2.24;100.00;98499.88;4976098;28;20213;-73
2020/12/17 01:43:39;;;;;;;16.90;13.53;;;;;;;2.21;100.00;98497.44;4992546;28;20212;-70
2020/12/17 01:46:07;;;;;;;14.50;11.57;;;;;;;2.05;100.00;98487.13;4999351;28;20205;-72
2020/12/17 01:48:34;;;;;;;16.17;13.37;;;;;;;1.99;100.00;98485.75;4992533;28;20514;-73
2020/12/17 01:51:03;;;;;;;14.87;12.37;;;;;;;1.93;100.00;98493.97;5009356;28;20220;-74
2020/12/17 01:53:36;;;;;;;14.37;12.27;;;;;;;1.97;100.00;98492.03;5003914;28;20446;-73
2020/12/17 01:56:04;;;;;;;14.80;12.40;;;;;;;1.90;100.00;98477.66;4974146;28;20463;-70
2020/12/17 01:58:34;;;;;;;16.03;12.83;;;;;;;1.83;100.00;98480.63;4991367;28;20691;-72
2020/12/17 02:01:02;;;;;;;14.20;11.97;;;;;;;1.78;100.00;98476.66;5002095;28;20205;-72
2020/12/17 02:03:29;;;;;;;16.27;12.70;;;;;;;1.77;100.00;98483.66;4982486;28;20785;-72
2020/12/17 02:05:57;;;;;;;14.13;12.67;;;;;;;1.90;100.00;98482.91;5007439;28;20232;-71
2020/12/17 02:08:25;;;;;;;14.00;12.17;;;;;;;1.93;100.00;98475.69;5002935;28;20362;-73
2020/12/17 02:10:52;;;;;;;15.50;13.27;;;;;;;1.96;100.00;98483.31;4972585;28;20475;-72
2020/12/17 02:13:32;;;;;;;15.80;12.47;;;;;;;1.99;100.00;98484.91;4987761;28;20648;-71
2020/12/17 02:16:00;;;;;;;13.80;12.07;;;;;;;2.05;100.00;98481.91;5003790;28;20208;-73
2020/12/17 02:18:28;;;;;;;15.53;11.70;;;;;;;1.95;100.00;98479.03;4976859;28;20606;-73
2020/12/17 02:20:55;;;;;;;13.33;11.67;;;;;;;1.99;100.00;98480.50;5003777;28;20204;-70
2020/12/17 02:23:23;;;;;;;15.33;12.27;;;;;;;1.95;100.00;98492.09;5001553;28;20227;-73
2020/12/17 02:25:52;;;;;;;16.40;12.97;;;;;;;1.90;100.00;98496.78;5007037;28;20600;-72
2020/12/17 02:28:19;;;;;;;14.20;12.40;;;;;;;1.90;100.00;98503.81;4956628;28;20328;-71
2020/12/17 02:30:46;;;;;;;14.03;12.50;;;;;;;1.79;100.00;98500.06;5000306;28;20566;-73
2020/12/17 02:33:14;;;;;;;14.33;11.50;;;;;;;1.85;100.00;98507.53;4983769;28;20650;-73
2020/12/17 02:35:41;;;;;;;17.77;12.97;;;;;;;1.93;100.00;98506.22;5002156;28;20953;-73
2020/12/17 02:38:08;;;;;;;18.63;14.47;;;;;;;1.83;100.00;98512.00;5006973;28;20681;-72
2020/12/17 02:40:36;;;;;;;13.47;12.03;;;;;;;1.79;100.00;98504.47;4987446;28;20213;-72
2020/12/17 02:43:04;;;;;;;14.03;12.57;;;;;;;1.85;100.00;98509.31;4973921;28;20211;-74
2020/12/17 02:45:31;;;;;;;17.13;14.13;;;;;;;1.81;100.00;98511.25;4976295;28;20835;-74
2020/12/17 02:47:58;;;;;;;15.10;12.07;;;;;;;1.96;100.00;98508.66;4997769;28;20611;-72
2020/12/17 02:50:25;;;;;;;16.20;12.23;;;;;;;1.77;100.00;98491.47;4980913;28;20270;-73
2020/12/17 02:52:52;;;;;;;15.80;12.87;;;;;;;1.83;100.00;98504.16;5006133;28;20215;-73
2020/12/17 02:55:19;;;;;;;17.53;14.40;;;;;;;1.67;100.00;98495.63;5004143;28;20314;-71
2020/12/17 02:57:46;;;;;;;16.40;12.97;;;;;;;1.64;100.00;98501.03;4970404;28;20231;-73
2020/12/17 03:00:15;;;;;;;16.67;13.50;;;;;;;1.83;100.00;98485.88;4979018;28;20212;-72
2020/12/17 03:02:42;;;;;;;15.77;13.17;;;;;;;1.67;100.00;98470.31;4994843;28;20240;-70
2020/12/17 03:05:09;;;;;;;19.97;14.10;;;;;;;1.54;100.00;98461.56;4978761;28;20212;-71
2020/12/17 03:07:37;;;;;;;18.33;14.23;;;;;;;1.54;100.00;98461.56;5002843;28;20236;-72
2020/12/17 03:10:05;;;;;;;18.03;13.97;;;;;;;1.49;100.00;98468.84;5002271;28;20221;-74
2020/12/17 03:12:32;;;;;;;20.40;14.90;;;;;;;1.46;100.00;98466.44;4972267;28;20444;-73
2020/12/17 03:14:59;;;;;;;18.97;14.63;;;;;;;1.59;100.00;98469.94;4994935;28;20212;-73
2020/12/17 03:17:27;;;;;;;17.07;14.13;;;;;;;1.58;100.00;98481.34;4985063;28;20542;-70
2020/12/17 03:19:54;;;;;;;19.20;14.30;;;;;;;1.66;100.00;98481.69;4985656;28;20673;-73
2020/12/17 03:22:21;;;;;;;21.30;14.77;;;;;;;1.72;100.00;98476.13;5003909;28;20205;-71
2020/12/17 03:24:48;;;;;;;17.70;14.20;;;;;;;1.76;100.00;98495.03;5010809;28;20209;-73
2020/12/17 03:27:15;;;;;;;17.30;13.97;;;;;;;1.70;100.00;98501.47;5004596;28;20232;-74
2020/12/17 03:29:42;;;;;;;22.30;14.97;;;;;;;1.82;100.00;98506.88;4976258;28;20612;-74
2020/12/17 03:32:09;;;;;;;20.93;14.87;;;;;;;1.85;100.00;98506.69;4976011;28;20209;-71
2020/12/17 03:34:37;;;;;;;19.53;14.17;;;;;;;1.78;100.00;98508.84;4979368;28;20696;-72
2020/12/17 03:37:05;;;;;;;16.27;13.57;;;;;;;1.90;100.00;98506.41;5007427;28;20224;-72
2020/12/17 03:39:31;;;;;;;17.93;13.80;;;;;;;1.97;100.00;98511.13;5002921;28;20228;-72
2020/12/17 03:41:58;;;;;;;16.63;13.03;;;;;;;1.92;100.00;98496.69;5001798;28;20213;-72
2020/12/17 03:44:25;;;;;;;17.37;14.37;;;;;;;1.80;100.00;98501.75;4972368;28;20724;-73
2020/12/17 03:46:52;;;;;;;18.87;14.13;;;;;;;1.65;100.00;98523.63;4975904;28;20232;-73
2020/12/17 03:49:19;;;;;;;16.37;13.77;;;;;;;1.81;100.00;98521.72;4982443;28;20205;-73
2020/12/17 03:51:48;;;;;;;17.57;13.37;;;;;;;1.78;100.00;98524.53;5007936;28;20326;-72
2020/12/17 03:54:16;;;;;;;14.83;12.50;;;;;;;1.80;100.00;98514.00;5008620;28;20235;-71
2020/12/17 03:56:43;;;;;;;18.33;14.17;;;;;;;1.77;100.00;98515.00;5004143;28;20216;-72
2020/12/17 03:59:09;;;;;;;18.17;13.60;;;;;;;1.74;100.00;98502.13;4974741;28;20661;-73
2020/12/17 04:01:36;;;;;;;16.03;12.60;;;;;;;1.78;100.00;98511.47;4988097;28;20240;-73
2020/12/17 04:04:03;;;;;;;17.70;15.10;;;;;;;1.85;100.00;98511.91;4982812;28;20213;-71
2020/12/17 04:06:30;;;;;;;17.93;13.93;;;;;;;1.84;100.00;98507.63;4969854;28;20214;-72
2020/12/17 04:08:58;;;;;;;15.67;12.70;;;;;;;1.80;100.00;98514.81;5004051;28;20216;-71
2020/12/17 04:11:26;;;;;;;18.20;14.43;;;;;;;1.72;100.00;98504.84;4992577;28;20340;-70
2020/12/17 04:13:53;;;;;;;18.03;14.10;;;;;;;1.80;100.00;98508.75;5000204;28;20223;-71
2020/12/17 04:16:20;;;;;;;17.83;13.80;;;;;;;1.91;100.00;98508.91;4967455;28;20557;-70
2020/12/17 04:18:47;;;;;;;18.47;13.83;;;;;;;1.94;100.00;98507.91;4994341;28;20215;-72
2020/12/17 04:21:14;;;;;;;17.90;13.67;;;;;;;1.78;100.00;98502.78;4978917;28;20615;-71
2020/12/17 04:23:43;;;;;;;18.47;14.40;;;;;;;1.83;100.00;98495.50;5005219;28;20507;-70
2020/12/17 04:26:14;;;;;;;19.67;15.10;;;;;;;1.72;100.00;98499.63;4989583;28;21046;-71
2020/12/17 04:28:41;;;;;;;20.60;14.90;;;;;;;1.81;100.00;98503.41;5004887;28;20228;-71
2020/12/17 04:31:08;;;;;;;18.13;14.87;;;;;;;1.81;100.00;98503.41;4962506;28;20749;-71
2020/12/17 04:33:35;;;;;;;19.93;14.23;;;;;;;1.82;100.00;98507.72;4997103;28;20216;-70
2020/12/17 04:36:02;;;;;;;20.30;15.30;;;;;;;1.74;100.00;98512.59;5005258;28;20205;-71
2020/12/17 04:38:29;;;;;;;22.23;16.87;;;;;;;1.85;100.00;98511.91;4979408;28;20235;-71
2020/12/17 04:40:56;;;;;;;22.47;16.00;;;;;;;1.59;100.00;98516.97;5000996;28;20202;-71
2020/12/17 04:43:25;;;;;;;24.93;16.40;;;;;;;1.67;100.00;98527.78;4991628;28;20302;-70
2020/12/17 04:45:52;;;;;;;21.37;16.83;;;;;;;1.71;100.00;98513.63;4973707;28;20564;-71
2020/12/17 04:48:21;;;;;;;22.33;16.23;;;;;;;1.81;100.00;98519.09;4981865;28;20220;-75
2020/12/17 04:50:48;;;;;;;23.00;15.67;;;;;;;1.87;100.00;98518.72;4988172;28;20238;-72
2020/12/17 04:53:15;;;;;;;26.33;17.07;;;;;;;1.78;100.00;98518.47;4975254;28;20681;-71
2020/12/17 04:55:43;;;;;;;25.47;17.50;;;;;;;1.67;100.00;98532.19;5005019;28;20207;-70
2020/12/17 04:58:10;;;;;;;24.17;17.50;;;;;;;1.82;100.00;98520.78;5002888;28;20232;-70
2020/12/17 05:00:40;;;;;;;24.87;16.57;;;;;;;1.67;100.00;98527.78;4977851;28;20227;-71
2020/12/17 05:03:12;;;;;;;22.17;15.67;;;;;;;1.79;100.00;98517.53;4988742;28;20216;-70
2020/12/17 05:05:39;;;;;;;23.77;16.63;;;;;;;1.64;100.00;98522.75;4997956;28;20209;-72
2020/12/17 05:08:06;;;;;;;27.10;19.03;;;;;;;1.61;100.00;98522.94;4983010;28;20216;-71
2020/12/17 05:10:33;;;;;;;26.20;18.53;;;;;;;1.69;100.00;98512.84;5005538;28;20626;-73
2020/12/17 05:13:00;;;;;;;27.63;18.47;;;;;;;1.53;100.00;98525.19;4981324;28;20224;-72
2020/12/17 05:15:27;;;;;;;29.30;19.23;;;;;;;1.63;100.00;98526.31;4973360;28;20919;-74
2020/12/17 05:17:55;;;;;;;26.50;19.23;;;;;;;1.66;100.00;98520.88;4984835;28;20233;-71
2020/12/17 05:20:22;;;;;;;30.13;18.90;;;;;;;1.66;100.00;98531.34;4986232;28;20201;-71
2020/12/17 05:22:49;;;;;;;29.23;18.70;;;;;;;1.72;100.00;98531.00;5001612;28;20219;-72
2020/12/17 05:25:16;;;;;;;29.50;18.80;;;;;;;1.81;100.00;98515.66;4964552;28;20666;-74
2020/12/17 05:27:43;;;;;;;29.77;18.87;;;;;;;1.87;100.00;98520.50;5000144;28;20224;-72
2020/12/17 05:30:10;;;;;;;26.63;18.40;;;;;;;1.73;100.00;98539.66;5003946;28;20227;-76
2020/12/17 05:32:41;;;;;;;31.53;18.23;;;;;;;1.68;100.00;98534.69;4952590;28;21077;-73
2020/12/17 05:35:16;;;;;;;26.90;18.80;;;;;;;1.76;100.00;98530.78;5004360;28;20208;-73
2020/12/17 05:37:43;;;;;;;26.07;18.67;;;;;;;1.78;100.00;98526.31;4986091;28;20227;-75
2020/12/17 05:40:12;;;;;;;29.57;18.43;;;;;;;1.74;100.00;98538.72;4981415;28;20324;-73
2020/12/17 05:42:40;;;;;;;29.13;19.93;;;;;;;1.63;100.00;98543.78;5006639;28;20200;-72
2020/12/17 05:45:25;;;;;;;31.60;19.57;;;;;;;1.78;100.00;98547.22;5005027;28;20223;-72
2020/12/17 05:48:08;;;;;;;29.37;18.87;;;;;;;1.91;100.00;98531.63;4952243;28;20232;-72
2020/12/17 05:50:46;;;;;;;27.57;18.30;;;;;;;1.97;100.00;98539.06;4996444;28;20231;-73
2020/12/17 05:53:15;;;;;;;28.03;19.57;;;;;;;2.02;100.00;98537.84;4992281;28;20219;-75
2020/12/17 05:55:42;;;;;;;30.40;19.97;;;;;;;1.92;100.00;98536.72;4979130;28;20218;-72
2020/12/17 05:58:10;;;;;;;25.93;19.03;;;;;;;1.81;100.00;98552.25;4996065;28;20501;-72
2020/12/17 06:00:37;;;;;;;30.67;19.20;;;;;;;1.91;100.00;98544.69;5008861;28;20259;-72
2020/12/17 06:03:08;;;;;;;25.93;19.40;;;;;;;1.92;100.00;98544.56;4933928;28;20343;-70
2020/12/17 06:05:42;;;;;;;31.73;19.80;;;;;;;1.82;100.00;98543.47;5005927;28;20646;-71
2020/12/17 06:08:16;;;;;;;33.47;19.57;;;;;;;1.66;100.00;98544.41;4991323;28;20240;-73
2020/12/17 06:10:48;;;;;;;28.93;20.87;;;;;;;1.76;100.00;98549.09;4978197;28;20224;-73
2020/12/17 06:13:16;;;;;;;28.67;19.27;;;;;;;1.83;100.00;98563.44;4998351;28;20460;-71
2020/12/17 06:15:48;;;;;;;34.33;20.83;;;;;;;1.81;100.00;98557.47;4997390;28;20311;-73
2020/12/17 06:18:17;;;;;;;27.03;19.30;;;;;;;2.01;100.00;98572.75;4959719;28;20234;-72
2020/12/17 06:20:48;;;;;;;27.83;19.40;;;;;;;1.95;100.00;98573.13;5003393;28;20566;-75
2020/12/17 06:23:16;;;;;;;31.13;21.10;;;;;;;1.99;100.00;98563.34;4992968;28;20466;-72
2020/12/17 06:25:45;;;;;;;27.73;20.20;;;;;;;1.90;100.00;98569.97;4979189;28;20212;-73
2020/12/17 06:28:36;;;;;;;25.83;17.23;;;;;;;1.83;100.00;98572.13;4984988;28;20874;-72
2020/12/17 06:31:05;;;;;;;29.30;20.97;;;;;;;1.81;100.00;98581.00;5000454;28;20816;-70
2020/12/17 06:33:35;;;;;;;33.13;20.00;;;;;;;2.00;100.00;98584.16;4978644;28;20219;-70
2020/12/17 06:36:09;;;;;;;26.63;18.53;;;;;;;1.93;100.00;98584.63;5002532;28;20494;-72
2020/12/17 06:38:38;;;;;;;26.83;18.43;;;;;;;1.98;100.00;98583.41;5002711;28;20267;-72
2020/12/17 06:41:19;;;;;;;25.97;18.20;;;;;;;2.06;100.00;98584.69;4986759;28;20453;-73
2020/12/17 06:43:47;;;;;;;28.03;19.07;;;;;;;1.95;100.00;98586.22;4976523;28;20211;-72
2020/12/17 06:46:31;;;;;;;25.53;17.70;;;;;;;1.90;100.00;98574.38;5003980;28;20807;-71
2020/12/17 06:48:58;;;;;;;27.37;17.43;;;;;;;1.98;100.00;98586.00;4974688;28;20548;-71
2020/12/17 06:51:34;;;;;;;27.43;18.73;;;;;;;1.91;100.00;98584.72;5008279;28;20228;-70
2020/12/17 06:54:03;;;;;;;26.97;17.47;;;;;;;1.86;100.00;98582.38;5001316;28;20217;-72
2020/12/17 06:56:30;;;;;;;27.67;18.63;;;;;;;1.98;100.00;98579.97;4986501;28;20227;-71
2020/12/17 06:59:15;;;;;;;26.30;18.13;;;;;;;1.94;100.00;98587.16;4980530;28;20216;-72
2020/12/17 07:01:43;;;;;;;27.70;19.40;;;;;;;1.94;100.00;98581.09;4996421;28;20407;-71
2020/12/17 07:04:10;;;;;;;28.57;19.93;;;;;;;1.92;100.00;98586.41;4958622;28;20338;-71
2020/12/17 07:06:38;;;;;;;24.50;17.70;;;;;;;1.81;100.00;98586.22;4999075;28;20520;-69
2020/12/17 07:09:05;;;;;;;26.17;17.97;;;;;;;1.85;100.00;98590.34;5007895;28;20205;-68
2020/12/17 07:11:40;;;;;;;25.23;17.70;;;;;;;1.83;100.00;98598.25;4969919;28;20418;-70
2020/12/17 07:14:09;;;;;;;27.97;18.13;;;;;;;1.85;100.00;98603.41;4980141;28;21190;-70
2020/12/17 07:16:37;;;;;;;25.33;17.80;;;;;;;1.72;100.00;98603.31;4997646;28;20767;-70
2020/12/17 07:19:26;;;;;;;27.83;18.13;;;;;;;1.80;100.00;98621.97;4975500;28;20209;-70
2020/12/17 07:22:00;;;;;;;22.33;17.27;;;;;;;1.83;100.00;98623.56;5002540;28;20284;-71
2020/12/17 07:24:30;;;;;;;24.97;18.33;;;;;;;1.89;100.00;98628.41;4994014;28;20207;-72
2020/12/17 07:27:04;;;;;;;22.83;16.87;;;;;;;2.00;100.00;98627.78;4988385;28;20240;-70
2020/12/17 07:29:38;;;;;;;23.57;16.80;;;;;;;2.00;100.00;98633.81;4983234;28;20227;-72
2020/12/17 07:32:29;;;;;;;24.47;17.70;;;;;;;1.95;100.00;98633.25;5007287;28;20224;-71
2020/12/17 07:34:58;;;;;;;25.53;18.03;;;;;;;2.06;100.00;98637.84;4958321;28;20636;-73
2020/12/17 07:37:40;;;;;;;28.93;18.53;;;;;;;1.92;100.00;98649.13;4997358;28;20217;-71
2020/12/17 07:40:28;;;;;;;26.97;20.57;;;;;;;2.09;100.00;98642.06;4999270;28;20208;-73
2020/12/17 07:42:57;;;;;;;23.43;18.53;;;;;;;1.88;100.00;98637.19;4990896;28;20209;-73
2020/12/17 07:45:43;;;;;;;34.23;30.63;;;;;;;1.82;100.00;98634.94;4984758;28;20208;-73
2020/12/17 07:48:35;;;;;;;22.73;16.33;;;;;;;1.92;100.00;98643.91;4990718;28;20522;-72
2020/12/17 07:51:03;;;;;;;19.10;15.47;;;;;;;1.93;100.00;98645.59;4978777;28;20601;-70
2020/12/17 07:53:31;;;;;;;20.23;15.27;;;;;;;2.07;100.00;98644.75;4990683;28;20212;-71
2020/12/17 07:55:58;;;;;;;20.37;14.73;;;;;;;1.90;100.00;98643.16;4987999;28;20228;-71
2020/12/17 07:58:25;;;;;;;19.93;15.73;;;;;;;1.99;100.00;98652.22;4990423;28;20228;-73
2020/12/17 08:00:54;;;;;;;17.43;14.77;;;;;;;1.92;100.00;98656.16;4977016;28;20216;-72
2020/12/17 08:03:21;;;;;;;20.97;14.03;;;;;;;2.07;100.00;98652.59;5006774;28;20205;-72
2020/12/17 08:05:48;;;;;;;15.87;12.90;;;;;;;2.05;100.00;98664.94;4999442;28;20204;-72
2020/12/17 08:08:16;;;;;;;16.37;13.07;;;;;;;2.11;100.00;98658.50;4972042;28;20589;-71
2020/12/17 08:10:45;;;;;;;26.30;22.10;;;;;;;2.13;100.00;98654.00;4989824;28;20347;-72
2020/12/17 08:13:12;;;;;;;19.37;16.73;;;;;;;2.21;100.00;98662.22;4991399;28;20259;-71
2020/12/17 08:15:41;;;;;;;19.13;16.53;;;;;;;2.05;100.00;98664.06;4964335;28;22238;-70
2020/12/17 08:18:08;;;;;;;16.20;14.20;;;;;;;2.01;100.00;98664.25;5006795;28;20766;-71
2020/12/17 08:20:36;;;;;;;16.33;13.27;;;;;;;2.10;100.00;98670.72;4999172;28;20465;-71
2020/12/17 08:23:03;;;;;;;17.87;13.93;;;;;;;2.06;100.00;98676.22;4953894;28;21342;-73
2020/12/17 08:25:34;;;;;;;15.97;13.37;;;;;;;2.24;100.00;98674.25;4993178;28;20227;-71
2020/12/17 08:28:01;;;;;;;15.10;13.60;;;;;;;2.22;100.00;98681.34;4985328;28;20240;-73
2020/12/17 08:30:29;;;;;;;16.63;14.40;;;;;;;2.09;100.00;98673.44;4964428;28;20277;-74
2020/12/17 08:32:56;;;;;;;14.00;12.53;;;;;;;2.21;100.00;98680.53;4978452;28;20212;-73
2020/12/17 08:35:25;;;;;;;17.13;13.73;;;;;;;2.26;100.00;98675.00;5006338;28;20212;-73
2020/12/17 08:37:53;;;;;;;12.57;11.27;;;;;;;2.21;100.00;98680.53;4967222;28;20379;-73
2020/12/17 08:40:23;;;;;;;14.73;13.00;;;;;;;2.23;100.00;98676.03;4997979;28;20868;-72
2020/12/17 08:42:54;;;;;;;17.13;12.73;;;;;;;2.30;100.00;98685.19;4986145;28;20397;-71
2020/12/17 08:45:27;;;;;;;12.83;11.53;;;;;;;2.31;100.00;98680.81;4980320;28;21470;-71
2020/12/17 08:47:57;;;;;;;15.67;12.40;;;;;;;2.37;100.00;98696.13;4981517;28;20739;-70
2020/12/17 08:50:26;;;;;;;14.70;12.27;;;;;;;2.42;100.00;98694.06;4997138;28;20508;-71
2020/12/17 08:52:53;;;;;;;17.30;12.83;;;;;;;2.40;100.00;98688.06;4987798;28;20439;-72
2020/12/17 08:55:23;;;;;;;14.23;12.33;;;;;;;2.40;100.00;98682.84;4986437;28;20223;-71
2020/12/17 08:57:50;;;;;;;16.50;13.10;;;;;;;2.30;100.00;98690.41;4989695;28;20240;-72
2020/12/17 09:00:19;;;;;;;13.03;11.73;;;;;;;2.33;100.00;98692.00;4984791;28;20406;-73
2020/12/17 09:02:47;;;;;;;13.27;11.63;;;;;;;2.43;100.00;98694.88;4955327;28;20669;-72
2020/12/17 09:05:16;;;;;;;14.77;12.47;;;;;;;2.23;100.00;98696.09;4999519;28;20223;-71
2020/12/17 09:07:46;;;;;;;14.20;12.00;;;;;;;2.33;100.00;98696.38;4996996;28;20244;-72
2020/12/17 09:10:15;;;;;;;16.10;12.70;;;;;;;2.28;100.00;98700.13;4970255;28;20724;-70
2020/12/17 09:12:43;;;;;;;14.40;11.90;;;;;;;2.33;100.00;98691.16;4984794;28;20205;-72
2020/12/17 09:15:14;;;;;;;16.37;12.93;;;;;;;2.25;100.00;98692.47;4989296;28;20715;-71
2020/12/17 09:17:41;;;;;;;13.30;11.60;;;;;;;2.35;100.00;98691.91;4981571;28;20710;-73
2020/12/17 09:20:15;;;;;;;13.03;11.47;;;;;;;2.38;100.00;98700.41;4976012;28;20215;-72
2020/12/17 09:22:42;;;;;;;14.13;11.70;;;;;;;2.39;100.00;98701.22;5001556;28;20521;-72
2020/12/17 09:25:10;;;;;;;15.83;12.67;;;;;;;2.53;100.00;98706.47;4966605;28;20322;-72
2020/12/17 09:27:37;;;;;;;12.67;11.43;;;;;;;2.53;100.00;98703.84;4988379;28;20232;-73
2020/12/17 09:30:10;;;;;;;16.67;15.17;;;;;;;2.48;100.00;98699.84;4982404;28;20896;-72
2020/12/17 09:32:39;;;;;;;14.80;13.00;;;;;;;2.52;100.00;98707.41;4983692;28;20223;-73
2020/12/17 09:35:09;;;;;;;12.80;11.40;;;;;;;2.51;100.00;98716.19;4971648;28;20304;-73
2020/12/17 09:37:38;;;;;;;13.07;11.77;;;;;;;2.47;100.00;98709.47;5004808;28;20229;-73
2020/12/17 09:40:07;;;;;;;12.70;11.33;;;;;;;2.68;100.00;98711.69;4969284;28;21115;-71
2020/12/17 09:42:34;;;;;;;12.40;11.17;;;;;;;2.51;100.00;98712.72;4998535;28;20435;-72
2020/12/17 09:45:13;;;;;;;12.13;10.87;;;;;;;2.53;100.00;98718.69;4970549;28;20205;-71
2020/12/17 09:47:40;;;;;;;12.40;10.47;;;;;;;2.67;100.00;98716.09;5005929;28;21049;-71
2020/12/17 09:50:09;;;;;;;11.40;9.87;;;;;;;2.79;100.00;98717.06;4977102;28;20438;-71
2020/12/17 09:52:36;;;;;;;12.43;11.10;;;;;;;2.81;100.00;98711.75;5010224;28;20703;-72
2020/12/17 09:55:04;;;;;;;11.87;10.77;;;;;;;2.77;100.00;98713.72;4995843;28;20210;-72
2020/12/17 09:57:39;;;;;;;12.37;10.63;;;;;;;3.00;100.00;98708.81;4971067;28;20487;-71
2020/12/17 10:00:08;;;;;;;12.97;11.13;;;;;;;2.95;100.00;98711.69;4985092;28;20243;-73
2020/12/17 10:02:35;;;;;;;11.30;10.10;;;;;;;3.02;100.00;98714.78;4979246;28;20244;-71
2020/12/17 10:05:03;;;;;;;10.80;9.80;;;;;;;3.07;100.00;98712.69;4998554;28;20225;-70
2020/12/17 10:07:30;;;;;;;10.97;9.87;;;;;;;3.12;100.00;98717.66;4978564;28;20232;-71
2020/12/17 10:09:58;;;;;;;11.10;10.00;;;;;;;2.99;100.00;98714.97;4990811;28;21462;-72
2020/12/17 10:12:40;;;;;;;10.43;9.43;;;;;;;2.95;100.00;98713.50;4970818;28;20509;-72
2020/12/17 10:15:07;;;;;;;9.77;8.87;;;;;;;3.08;100.00;98724.03;4988505;28;20208;-72
2020/12/17 10:17:34;;;;;;;11.20;9.80;;;;;;;3.24;100.00;98724.72;4987162;28;20287;-71
2020/12/17 10:20:02;;;;;;;11.23;10.10;;;;;;;3.29;100.00;98713.94;5007721;28;20216;-72
2020/12/17 10:22:39;;;;;;;9.37;8.50;;;;;;;3.16;100.00;98717.34;4974169;28;20217;-72
2020/12/17 10:25:07;;;;;;;11.73;10.37;;;;;;;3.26;100.00;98707.09;5007488;28;20220;-73
2020/12/17 10:27:34;;;;;;;11.00;9.90;;;;;;;3.41;100.00;98720.13;4955716;28;20243;-71
2020/12/17 10:30:01;;;;;;;10.13;9.13;;;;;;;3.53;99.71;98718.50;5006884;28;20197;-69
2020/12/17 10:32:28;;;;;;;10.40;9.40;;;;;;;3.60;98.29;98718.00;4989665;28;20819;-71
2020/12/17 10:34:55;;;;;;;11.17;10.07;;;;;;;3.25;100.00;98720.31;5004936;28;20334;-72
2020/12/17 10:37:25;;;;;;;11.03;9.93;;;;;;;3.49;100.00;98707.41;4983715;28;20237;-72
2020/12/17 10:39:52;;;;;;;11.33;10.20;;;;;;;3.35;100.00;98717.91;5007389;28;20274;-71
2020/12/17 10:42:21;;;;;;;11.70;9.37;;;;;;;3.45;100.00;98725.09;4981227;28;20209;-71
2020/12/17 10:44:48;;;;;;;10.53;9.53;;;;;;;3.38;100.00;98710.72;4984119;28;20266;-71
2020/12/17 10:47:16;;;;;;;10.40;9.30;;;;;;;3.35;99.26;98712.69;4997473;28;20231;-70
2020/12/17 10:49:43;;;;;;;10.23;9.10;;;;;;;3.17;100.00;98712.94;5001896;28;20394;-71
2020/12/17 10:52:10;;;;;;;9.67;8.77;;;;;;;3.26;100.00;98707.09;4986753;28;20232;-71
2020/12/17 10:54:37;;;;;;;10.10;9.17;;;;;;;3.54;99.29;98705.31;5002147;28;20208;-72
2020/12/17 10:57:06;;;;;;;9.57;8.77;;;;;;;3.81;99.60;98719.28;5005022;28;20228;-70
2020/12/17 10:59:34;;;;;;;10.33;9.23;;;;;;;3.67;98.63;98701.84;4961515;28;20315;-72
2020/12/17 11:02:02;;;;;;;9.47;8.57;;;;;;;3.70;97.98;98699.88;4991773;28;20216;-71
2020/12/17 11:04:28;;;;;;;9.53;8.53;;;;;;;3.79;96.81;98702.81;5005559;28;20405;-71
2020/12/17 11:06:56;;;;;;;9.23;8.27;;;;;;;3.91;96.00;98697.59;4981409;28;21007;-71
2020/12/17 11:09:28;;;;;;;8.17;7.40;;;;;;;3.99;95.25;98699.69;5002746;28;20289;-71
2020/12/17 11:11:55;;;;;;;9.17;8.37;;;;;;;3.90;95.78;98697.69;5006953;28;20628;-72
2020/12/17 11:14:22;;;;;;;9.47;8.40;;;;;;;3.86;95.53;98710.19;4983568;28;20232;-72
2020/12/17 11:16:52;;;;;;;8.97;8.17;;;;;;;3.86;96.36;98706.69;4974706;28;20311;-70
2020/12/17 11:19:20;;;;;;;8.43;7.73;;;;;;;4.14;95.42;98707.44;5005109;28;20599;-71
2020/12/17 11:21:47;;;;;;;9.33;8.43;;;;;;;4.16;95.70;98713.44;5003106;28;20411;-72
2020/12/17 11:24:14;;;;;;;9.83;8.93;;;;;;;4.18;94.61;98706.28;4981441;28;20219;-73
2020/12/17 11:26:43;;;;;;;10.30;9.40;;;;;;;4.32;94.51;98705.34;5004718;28;20431;-72